sensor_id;sensor_type;location;lat;lon;timestamp;P1;durP1;ratioP1;P2;durP2;ratioP2
17864;SDS011;9058;52.018;4.202;2022-08-21T00:00:48;9.27;;;1.90;;
17864;SDS011;9058;52.018;4.202;2022-08-21T00:03:16;6.97;;;2.40;;
17864;SDS011;9058;52.018;4.202;2022-08-21T00:05:44;8.32;;;2.05;;
17864;SDS011;9058;52.018;4.202;2022-08-21T00:08:12;9.35;;;2.25;;
17864;SDS011;9058;52.018;4.202;2022-08-21T00:10:38;9.10;;;2.38;;
17864;SDS011;9058;52.018;4.202;2022-08-21T00:13:06;7.30;;;2.20;;
17864;SDS011;9058;52.018;4.202;2022-08-21T00:15:34;8.50;;;2.60;;
17864;SDS011;9058;52.018;4.202;2022-08-21T00:18:00;8.00;;;2.45;;
17864;SDS011;9058;52.018;4.202;2022-08-21T00:20:27;7.90;;;2.40;;
17864;SDS011;9058;52.018;4.202;2022-08-21T00:22:55;8.00;;;2.78;;
17864;SDS011;9058;52.018;4.202;2022-08-21T00:25:23;8.40;;;1.98;;
17864;SDS011;9058;52.018;4.202;2022-08-21T00:27:49;7.90;;;2.63;;
17864;SDS011;9058;52.018;4.202;2022-08-21T00:30:17;8.90;;;2.40;;
17864;SDS011;9058;52.018;4.202;2022-08-21T00:32:44;9.95;;;2.55;;
17864;SDS011;9058;52.018;4.202;2022-08-21T00:35:13;7.15;;;2.65;;
17864;SDS011;9058;52.018;4.202;2022-08-21T00:37:40;8.88;;;2.78;;
17864;SDS011;9058;52.018;4.202;2022-08-21T00:40:09;6.18;;;2.60;;
17864;SDS011;9058;52.018;4.202;2022-08-21T00:42:36;9.07;;;2.70;;
17864;SDS011;9058;52.018;4.202;2022-08-21T00:45:08;6.95;;;2.60;;
17864;SDS011;9058;52.018;4.202;2022-08-21T00:47:36;7.25;;;2.35;;
17864;SDS011;9058;52.018;4.202;2022-08-21T00:50:03;11.90;;;2.80;;
17864;SDS011;9058;52.018;4.202;2022-08-21T00:52:30;12.48;;;2.67;;
17864;SDS011;9058;52.018;4.202;2022-08-21T00:54:57;10.63;;;2.78;;
17864;SDS011;9058;52.018;4.202;2022-08-21T00:57:27;9.95;;;3.58;;
17864;SDS011;9058;52.018;4.202;2022-08-21T00:59:55;7.93;;;2.92;;
17864;SDS011;9058;52.018;4.202;2022-08-21T01:02:21;12.27;;;3.40;;
17864;SDS011;9058;52.018;4.202;2022-08-21T01:04:48;9.38;;;2.97;;
17864;SDS011;9058;52.018;4.202;2022-08-21T01:07:14;13.23;;;3.60;;
17864;SDS011;9058;52.018;4.202;2022-08-21T01:09:41;11.43;;;3.60;;
17864;SDS011;9058;52.018;4.202;2022-08-21T01:12:08;9.80;;;3.70;;
17864;SDS011;9058;52.018;4.202;2022-08-21T01:14:36;9.25;;;3.42;;
17864;SDS011;9058;52.018;4.202;2022-08-21T01:17:03;15.27;;;4.13;;
17864;SDS011;9058;52.018;4.202;2022-08-21T01:19:29;9.48;;;3.35;;
17864;SDS011;9058;52.018;4.202;2022-08-21T01:21:57;7.75;;;3.55;;
17864;SDS011;9058;52.018;4.202;2022-08-21T01:24:24;7.35;;;3.38;;
17864;SDS011;9058;52.018;4.202;2022-08-21T01:26:51;8.43;;;4.05;;
17864;SDS011;9058;52.018;4.202;2022-08-21T01:29:20;8.77;;;3.90;;
17864;SDS011;9058;52.018;4.202;2022-08-21T01:31:48;12.73;;;4.57;;
17864;SDS011;9058;52.018;4.202;2022-08-21T01:34:15;13.98;;;4.60;;
17864;SDS011;9058;52.018;4.202;2022-08-21T01:36:42;10.75;;;4.78;;
17864;SDS011;9058;52.018;4.202;2022-08-21T01:39:10;10.55;;;5.00;;
17864;SDS011;9058;52.018;4.202;2022-08-21T01:41:37;9.35;;;4.68;;
17864;SDS011;9058;52.018;4.202;2022-08-21T01:44:03;8.60;;;3.92;;
17864;SDS011;9058;52.018;4.202;2022-08-21T01:46:29;10.82;;;4.13;;
17864;SDS011;9058;52.018;4.202;2022-08-21T01:48:57;7.60;;;3.50;;
17864;SDS011;9058;52.018;4.202;2022-08-21T01:51:23;9.68;;;4.38;;
17864;SDS011;9058;52.018;4.202;2022-08-21T01:53:50;10.00;;;4.05;;
17864;SDS011;9058;52.018;4.202;2022-08-21T01:56:18;6.13;;;3.40;;
17864;SDS011;9058;52.018;4.202;2022-08-21T01:58:45;8.88;;;3.80;;
17864;SDS011;9058;52.018;4.202;2022-08-21T02:01:11;13.60;;;4.80;;
17864;SDS011;9058;52.018;4.202;2022-08-21T02:03:38;8.45;;;3.90;;
17864;SDS011;9058;52.018;4.202;2022-08-21T02:06:04;8.82;;;4.13;;
17864;SDS011;9058;52.018;4.202;2022-08-21T02:08:32;12.88;;;4.18;;
17864;SDS011;9058;52.018;4.202;2022-08-21T02:10:58;6.97;;;3.58;;
17864;SDS011;9058;52.018;4.202;2022-08-21T02:13:27;7.93;;;3.15;;
17864;SDS011;9058;52.018;4.202;2022-08-21T02:15:53;10.50;;;3.45;;
17864;SDS011;9058;52.018;4.202;2022-08-21T02:18:21;7.15;;;3.28;;
17864;SDS011;9058;52.018;4.202;2022-08-21T02:20:48;19.42;;;4.10;;
17864;SDS011;9058;52.018;4.202;2022-08-21T02:23:14;8.63;;;3.10;;
17864;SDS011;9058;52.018;4.202;2022-08-21T02:25:41;12.50;;;4.20;;
17864;SDS011;9058;52.018;4.202;2022-08-21T02:28:11;9.80;;;3.33;;
17864;SDS011;9058;52.018;4.202;2022-08-21T02:30:40;5.90;;;2.83;;
17864;SDS011;9058;52.018;4.202;2022-08-21T02:33:07;8.10;;;3.53;;
17864;SDS011;9058;52.018;4.202;2022-08-21T02:35:35;9.23;;;3.78;;
17864;SDS011;9058;52.018;4.202;2022-08-21T02:38:03;13.27;;;3.88;;
17864;SDS011;9058;52.018;4.202;2022-08-21T02:40:31;11.90;;;4.00;;
17864;SDS011;9058;52.018;4.202;2022-08-21T02:42:58;14.70;;;3.95;;
17864;SDS011;9058;52.018;4.202;2022-08-21T02:45:25;8.68;;;3.50;;
17864;SDS011;9058;52.018;4.202;2022-08-21T02:47:55;9.88;;;3.60;;
17864;SDS011;9058;52.018;4.202;2022-08-21T02:50:23;9.65;;;3.63;;
17864;SDS011;9058;52.018;4.202;2022-08-21T02:52:50;8.85;;;3.22;;
17864;SDS011;9058;52.018;4.202;2022-08-21T02:55:17;8.90;;;3.60;;
17864;SDS011;9058;52.018;4.202;2022-08-21T02:57:44;12.85;;;3.92;;
17864;SDS011;9058;52.018;4.202;2022-08-21T03:00:10;9.82;;;3.45;;
17864;SDS011;9058;52.018;4.202;2022-08-21T03:02:37;10.70;;;4.15;;
17864;SDS011;9058;52.018;4.202;2022-08-21T03:05:07;10.70;;;4.10;;
17864;SDS011;9058;52.018;4.202;2022-08-21T03:07:34;12.10;;;4.00;;
17864;SDS011;9058;52.018;4.202;2022-08-21T03:10:00;11.77;;;4.97;;
17864;SDS011;9058;52.018;4.202;2022-08-21T03:12:27;12.30;;;4.47;;
17864;SDS011;9058;52.018;4.202;2022-08-21T03:14:53;11.55;;;4.78;;
17864;SDS011;9058;52.018;4.202;2022-08-21T03:17:19;12.88;;;4.35;;
17864;SDS011;9058;52.018;4.202;2022-08-21T03:19:46;14.15;;;4.45;;
17864;SDS011;9058;52.018;4.202;2022-08-21T03:22:13;18.20;;;5.00;;
17864;SDS011;9058;52.018;4.202;2022-08-21T03:24:40;10.68;;;4.43;;
17864;SDS011;9058;52.018;4.202;2022-08-21T03:27:06;13.15;;;3.85;;
17864;SDS011;9058;52.018;4.202;2022-08-21T03:29:32;17.73;;;4.88;;
17864;SDS011;9058;52.018;4.202;2022-08-21T03:32:00;11.80;;;4.28;;
17864;SDS011;9058;52.018;4.202;2022-08-21T03:34:26;14.40;;;4.78;;
17864;SDS011;9058;52.018;4.202;2022-08-21T03:36:52;9.77;;;4.05;;
17864;SDS011;9058;52.018;4.202;2022-08-21T03:39:20;18.50;;;5.13;;
17864;SDS011;9058;52.018;4.202;2022-08-21T03:41:46;10.48;;;4.80;;
17864;SDS011;9058;52.018;4.202;2022-08-21T03:44:13;12.82;;;5.20;;
17864;SDS011;9058;52.018;4.202;2022-08-21T03:46:39;13.02;;;5.20;;
17864;SDS011;9058;52.018;4.202;2022-08-21T03:49:06;12.88;;;5.07;;
17864;SDS011;9058;52.018;4.202;2022-08-21T03:51:33;13.85;;;5.68;;
17864;SDS011;9058;52.018;4.202;2022-08-21T03:54:00;12.52;;;5.30;;
17864;SDS011;9058;52.018;4.202;2022-08-21T03:56:28;15.43;;;5.13;;
17864;SDS011;9058;52.018;4.202;2022-08-21T03:58:54;18.42;;;5.90;;
17864;SDS011;9058;52.018;4.202;2022-08-21T04:01:21;14.52;;;5.25;;
17864;SDS011;9058;52.018;4.202;2022-08-21T04:03:47;12.57;;;5.35;;
17864;SDS011;9058;52.018;4.202;2022-08-21T04:06:14;14.20;;;5.13;;
17864;SDS011;9058;52.018;4.202;2022-08-21T04:08:40;12.07;;;5.38;;
17864;SDS011;9058;52.018;4.202;2022-08-21T04:11:08;18.13;;;5.97;;
17864;SDS011;9058;52.018;4.202;2022-08-21T04:13:36;17.85;;;7.03;;
17864;SDS011;9058;52.018;4.202;2022-08-21T04:16:03;11.98;;;6.35;;
17864;SDS011;9058;52.018;4.202;2022-08-21T04:18:30;15.30;;;5.90;;
17864;SDS011;9058;52.018;4.202;2022-08-21T04:20:56;23.20;;;6.43;;
17864;SDS011;9058;52.018;4.202;2022-08-21T04:23:23;17.85;;;7.07;;
17864;SDS011;9058;52.018;4.202;2022-08-21T04:25:51;19.42;;;6.65;;
17864;SDS011;9058;52.018;4.202;2022-08-21T04:28:18;15.77;;;6.65;;
17864;SDS011;9058;52.018;4.202;2022-08-21T04:30:45;11.23;;;6.38;;
17864;SDS011;9058;52.018;4.202;2022-08-21T04:33:12;20.88;;;7.00;;
17864;SDS011;9058;52.018;4.202;2022-08-21T04:35:39;15.85;;;6.80;;
17864;SDS011;9058;52.018;4.202;2022-08-21T04:38:06;15.77;;;7.30;;
17864;SDS011;9058;52.018;4.202;2022-08-21T04:40:33;15.85;;;6.65;;
17864;SDS011;9058;52.018;4.202;2022-08-21T04:43:00;21.17;;;7.90;;
17864;SDS011;9058;52.018;4.202;2022-08-21T04:45:28;13.60;;;7.07;;
17864;SDS011;9058;52.018;4.202;2022-08-21T04:47:56;14.00;;;7.60;;
17864;SDS011;9058;52.018;4.202;2022-08-21T04:50:24;18.67;;;7.40;;
17864;SDS011;9058;52.018;4.202;2022-08-21T04:52:52;25.63;;;8.30;;
17864;SDS011;9058;52.018;4.202;2022-08-21T04:55:19;20.60;;;7.35;;
17864;SDS011;9058;52.018;4.202;2022-08-21T04:57:47;18.00;;;9.10;;
17864;SDS011;9058;52.018;4.202;2022-08-21T05:00:16;21.17;;;7.97;;
17864;SDS011;9058;52.018;4.202;2022-08-21T05:02:44;17.02;;;7.57;;
17864;SDS011;9058;52.018;4.202;2022-08-21T05:05:13;14.80;;;8.20;;
17864;SDS011;9058;52.018;4.202;2022-08-21T05:07:41;18.13;;;8.07;;
17864;SDS011;9058;52.018;4.202;2022-08-21T05:10:08;20.33;;;7.40;;
17864;SDS011;9058;52.018;4.202;2022-08-21T05:12:35;16.95;;;7.70;;
17864;SDS011;9058;52.018;4.202;2022-08-21T05:15:01;22.80;;;7.93;;
17864;SDS011;9058;52.018;4.202;2022-08-21T05:17:28;18.10;;;7.70;;
17864;SDS011;9058;52.018;4.202;2022-08-21T05:19:55;18.05;;;7.20;;
17864;SDS011;9058;52.018;4.202;2022-08-21T05:22:22;16.95;;;7.65;;
17864;SDS011;9058;52.018;4.202;2022-08-21T05:24:50;17.83;;;7.00;;
17864;SDS011;9058;52.018;4.202;2022-08-21T05:27:17;14.57;;;6.70;;
17864;SDS011;9058;52.018;4.202;2022-08-21T05:29:43;16.92;;;7.05;;
17864;SDS011;9058;52.018;4.202;2022-08-21T05:32:10;17.40;;;6.57;;
17864;SDS011;9058;52.018;4.202;2022-08-21T05:34:36;14.15;;;6.65;;
17864;SDS011;9058;52.018;4.202;2022-08-21T05:37:03;14.75;;;7.13;;
17864;SDS011;9058;52.018;4.202;2022-08-21T05:39:31;16.02;;;6.30;;
17864;SDS011;9058;52.018;4.202;2022-08-21T05:41:57;12.27;;;6.70;;
17864;SDS011;9058;52.018;4.202;2022-08-21T05:44:24;12.30;;;6.07;;
17864;SDS011;9058;52.018;4.202;2022-08-21T05:46:50;15.77;;;7.32;;
17864;SDS011;9058;52.018;4.202;2022-08-21T05:49:17;15.85;;;5.90;;
17864;SDS011;9058;52.018;4.202;2022-08-21T05:51:43;13.70;;;5.72;;
17864;SDS011;9058;52.018;4.202;2022-08-21T05:54:09;14.77;;;6.03;;
17864;SDS011;9058;52.018;4.202;2022-08-21T05:56:38;15.07;;;6.22;;
17864;SDS011;9058;52.018;4.202;2022-08-21T05:59:04;10.98;;;5.53;;
17864;SDS011;9058;52.018;4.202;2022-08-21T06:01:31;17.23;;;6.28;;
17864;SDS011;9058;52.018;4.202;2022-08-21T06:03:57;11.52;;;5.55;;
17864;SDS011;9058;52.018;4.202;2022-08-21T06:06:23;13.80;;;5.88;;
17864;SDS011;9058;52.018;4.202;2022-08-21T06:08:50;16.48;;;5.68;;
17864;SDS011;9058;52.018;4.202;2022-08-21T06:11:17;11.88;;;5.80;;
17864;SDS011;9058;52.018;4.202;2022-08-21T06:13:45;14.73;;;6.53;;
17864;SDS011;9058;52.018;4.202;2022-08-21T06:16:12;14.05;;;5.57;;
17864;SDS011;9058;52.018;4.202;2022-08-21T06:18:39;15.23;;;6.82;;
17864;SDS011;9058;52.018;4.202;2022-08-21T06:21:06;9.90;;;5.35;;
17864;SDS011;9058;52.018;4.202;2022-08-21T06:23:33;16.38;;;6.05;;
17864;SDS011;9058;52.018;4.202;2022-08-21T06:25:59;12.50;;;5.07;;
17864;SDS011;9058;52.018;4.202;2022-08-21T06:28:26;16.17;;;5.47;;
17864;SDS011;9058;52.018;4.202;2022-08-21T06:30:54;12.07;;;4.93;;
17864;SDS011;9058;52.018;4.202;2022-08-21T06:33:20;14.00;;;5.28;;
17864;SDS011;9058;52.018;4.202;2022-08-21T06:35:47;13.48;;;5.43;;
17864;SDS011;9058;52.018;4.202;2022-08-21T06:38:13;11.82;;;5.55;;
17864;SDS011;9058;52.018;4.202;2022-08-21T06:40:40;13.70;;;4.68;;
17864;SDS011;9058;52.018;4.202;2022-08-21T06:43:07;10.73;;;4.65;;
17864;SDS011;9058;52.018;4.202;2022-08-21T06:45:34;16.75;;;4.72;;
17864;SDS011;9058;52.018;4.202;2022-08-21T06:48:01;9.95;;;4.15;;
17864;SDS011;9058;52.018;4.202;2022-08-21T06:50:28;18.30;;;4.45;;
17864;SDS011;9058;52.018;4.202;2022-08-21T06:52:58;8.70;;;4.55;;
17864;SDS011;9058;52.018;4.202;2022-08-21T06:55:24;12.82;;;4.82;;
17864;SDS011;9058;52.018;4.202;2022-08-21T06:57:52;9.50;;;4.38;;
17864;SDS011;9058;52.018;4.202;2022-08-21T07:00:19;13.82;;;5.22;;
17864;SDS011;9058;52.018;4.202;2022-08-21T07:02:45;13.27;;;4.60;;
17864;SDS011;9058;52.018;4.202;2022-08-21T07:05:13;8.15;;;3.42;;
17864;SDS011;9058;52.018;4.202;2022-08-21T07:07:39;11.70;;;4.75;;
17864;SDS011;9058;52.018;4.202;2022-08-21T07:10:07;14.48;;;4.35;;
17864;SDS011;9058;52.018;4.202;2022-08-21T07:12:34;12.15;;;3.88;;
17864;SDS011;9058;52.018;4.202;2022-08-21T07:15:00;10.95;;;3.70;;
17864;SDS011;9058;52.018;4.202;2022-08-21T07:17:27;10.23;;;3.90;;
17864;SDS011;9058;52.018;4.202;2022-08-21T07:19:54;9.63;;;4.38;;
17864;SDS011;9058;52.018;4.202;2022-08-21T07:22:23;13.20;;;3.90;;
17864;SDS011;9058;52.018;4.202;2022-08-21T07:24:50;15.00;;;4.10;;
17864;SDS011;9058;52.018;4.202;2022-08-21T07:27:16;13.73;;;4.43;;
17864;SDS011;9058;52.018;4.202;2022-08-21T07:29:45;13.27;;;3.40;;
17864;SDS011;9058;52.018;4.202;2022-08-21T07:32:11;10.10;;;2.80;;
17864;SDS011;9058;52.018;4.202;2022-08-21T07:34:39;11.27;;;3.28;;
17864;SDS011;9058;52.018;4.202;2022-08-21T07:37:07;10.82;;;3.10;;
17864;SDS011;9058;52.018;4.202;2022-08-21T07:39:35;11.63;;;2.95;;
17864;SDS011;9058;52.018;4.202;2022-08-21T07:42:01;11.05;;;2.70;;
17864;SDS011;9058;52.018;4.202;2022-08-21T07:44:28;10.90;;;2.58;;
17864;SDS011;9058;52.018;4.202;2022-08-21T07:46:54;10.65;;;2.72;;
17864;SDS011;9058;52.018;4.202;2022-08-21T07:49:21;5.40;;;2.03;;
17864;SDS011;9058;52.018;4.202;2022-08-21T07:51:47;8.20;;;2.80;;
17864;SDS011;9058;52.018;4.202;2022-08-21T07:54:13;9.18;;;2.63;;
17864;SDS011;9058;52.018;4.202;2022-08-21T07:56:41;9.77;;;2.72;;
17864;SDS011;9058;52.018;4.202;2022-08-21T07:59:08;10.05;;;2.92;;
17864;SDS011;9058;52.018;4.202;2022-08-21T08:01:34;9.07;;;2.42;;
17864;SDS011;9058;52.018;4.202;2022-08-21T08:04:01;8.38;;;2.67;;
17864;SDS011;9058;52.018;4.202;2022-08-21T08:06:29;7.95;;;2.08;;
17864;SDS011;9058;52.018;4.202;2022-08-21T08:08:56;9.75;;;2.13;;
17864;SDS011;9058;52.018;4.202;2022-08-21T08:11:22;9.10;;;1.83;;
17864;SDS011;9058;52.018;4.202;2022-08-21T08:13:51;7.03;;;2.13;;
17864;SDS011;9058;52.018;4.202;2022-08-21T08:16:18;11.23;;;2.85;;
17864;SDS011;9058;52.018;4.202;2022-08-21T08:18:45;6.57;;;2.22;;
17864;SDS011;9058;52.018;4.202;2022-08-21T08:21:11;8.55;;;1.92;;
17864;SDS011;9058;52.018;4.202;2022-08-21T08:23:38;9.73;;;2.45;;
17864;SDS011;9058;52.018;4.202;2022-08-21T08:26:05;7.32;;;1.92;;
17864;SDS011;9058;52.018;4.202;2022-08-21T08:28:32;6.38;;;1.95;;
17864;SDS011;9058;52.018;4.202;2022-08-21T08:31:00;6.95;;;1.50;;
17864;SDS011;9058;52.018;4.202;2022-08-21T08:33:27;5.32;;;1.63;;
17864;SDS011;9058;52.018;4.202;2022-08-21T08:35:53;6.13;;;1.58;;
17864;SDS011;9058;52.018;4.202;2022-08-21T08:38:20;5.60;;;1.63;;
17864;SDS011;9058;52.018;4.202;2022-08-21T08:40:49;4.60;;;1.55;;
17864;SDS011;9058;52.018;4.202;2022-08-21T08:43:18;6.32;;;1.90;;
17864;SDS011;9058;52.018;4.202;2022-08-21T08:45:45;6.15;;;1.77;;
17864;SDS011;9058;52.018;4.202;2022-08-21T08:48:14;5.63;;;1.77;;
17864;SDS011;9058;52.018;4.202;2022-08-21T08:50:44;6.90;;;1.27;;
17864;SDS011;9058;52.018;4.202;2022-08-21T08:53:15;7.25;;;1.73;;
17864;SDS011;9058;52.018;4.202;2022-08-21T08:55:43;5.57;;;1.58;;
17864;SDS011;9058;52.018;4.202;2022-08-21T08:58:11;8.27;;;1.88;;
17864;SDS011;9058;52.018;4.202;2022-08-21T09:00:38;8.23;;;1.92;;
17864;SDS011;9058;52.018;4.202;2022-08-21T09:03:04;4.68;;;1.40;;
17864;SDS011;9058;52.018;4.202;2022-08-21T09:05:35;6.50;;;1.98;;
17864;SDS011;9058;52.018;4.202;2022-08-21T09:08:10;5.35;;;1.42;;
17864;SDS011;9058;52.018;4.202;2022-08-21T09:10:43;7.78;;;1.85;;
17864;SDS011;9058;52.018;4.202;2022-08-21T09:13:13;7.78;;;1.90;;
17864;SDS011;9058;52.018;4.202;2022-08-21T09:15:44;8.32;;;1.70;;
17864;SDS011;9058;52.018;4.202;2022-08-21T09:18:17;5.00;;;1.90;;
17864;SDS011;9058;52.018;4.202;2022-08-21T09:20:53;7.30;;;1.65;;
17864;SDS011;9058;52.018;4.202;2022-08-21T09:23:23;7.28;;;2.10;;
17864;SDS011;9058;52.018;4.202;2022-08-21T09:25:54;9.95;;;2.55;;
17864;SDS011;9058;52.018;4.202;2022-08-21T09:28:21;7.40;;;1.95;;
17864;SDS011;9058;52.018;4.202;2022-08-21T09:30:48;6.90;;;1.90;;
17864;SDS011;9058;52.018;4.202;2022-08-21T09:33:15;6.85;;;1.77;;
17864;SDS011;9058;52.018;4.202;2022-08-21T09:35:51;7.85;;;2.20;;
17864;SDS011;9058;52.018;4.202;2022-08-21T09:38:24;7.55;;;2.08;;
17864;SDS011;9058;52.018;4.202;2022-08-21T09:40:54;5.65;;;2.03;;
17864;SDS011;9058;52.018;4.202;2022-08-21T09:43:23;7.68;;;2.30;;
17864;SDS011;9058;52.018;4.202;2022-08-21T09:46:00;9.60;;;2.22;;
17864;SDS011;9058;52.018;4.202;2022-08-21T09:48:27;7.72;;;2.40;;
17864;SDS011;9058;52.018;4.202;2022-08-21T09:51:06;7.13;;;2.35;;
17864;SDS011;9058;52.018;4.202;2022-08-21T09:53:34;9.95;;;2.40;;
17864;SDS011;9058;52.018;4.202;2022-08-21T09:56:02;7.82;;;2.30;;
17864;SDS011;9058;52.018;4.202;2022-08-21T09:58:47;11.15;;;2.65;;
17864;SDS011;9058;52.018;4.202;2022-08-21T10:01:14;17.65;;;2.80;;
17864;SDS011;9058;52.018;4.202;2022-08-21T10:03:41;10.23;;;2.00;;
17864;SDS011;9058;52.018;4.202;2022-08-21T10:06:09;8.65;;;1.85;;
17864;SDS011;9058;52.018;4.202;2022-08-21T10:08:37;8.80;;;2.05;;
17864;SDS011;9058;52.018;4.202;2022-08-21T10:11:05;6.53;;;1.77;;
17864;SDS011;9058;52.018;4.202;2022-08-21T10:13:36;6.72;;;1.80;;
17864;SDS011;9058;52.018;4.202;2022-08-21T10:16:10;8.60;;;1.83;;
17864;SDS011;9058;52.018;4.202;2022-08-21T10:18:39;7.20;;;1.60;;
17864;SDS011;9058;52.018;4.202;2022-08-21T10:21:16;8.70;;;1.60;;
17864;SDS011;9058;52.018;4.202;2022-08-21T10:23:51;5.45;;;1.58;;
17864;SDS011;9058;52.018;4.202;2022-08-21T10:26:25;5.43;;;1.52;;
17864;SDS011;9058;52.018;4.202;2022-08-21T10:28:55;10.30;;;2.10;;
17864;SDS011;9058;52.018;4.202;2022-08-21T10:31:27;5.15;;;1.67;;
17864;SDS011;9058;52.018;4.202;2022-08-21T10:33:58;6.72;;;1.65;;
17864;SDS011;9058;52.018;4.202;2022-08-21T10:36:32;4.25;;;1.38;;
17864;SDS011;9058;52.018;4.202;2022-08-21T10:39:04;6.88;;;1.83;;
17864;SDS011;9058;52.018;4.202;2022-08-21T10:41:37;6.72;;;1.75;;
17864;SDS011;9058;52.018;4.202;2022-08-21T10:44:09;8.13;;;1.70;;
17864;SDS011;9058;52.018;4.202;2022-08-21T10:46:40;7.70;;;1.50;;
17864;SDS011;9058;52.018;4.202;2022-08-21T10:49:11;6.13;;;1.80;;
17864;SDS011;9058;52.018;4.202;2022-08-21T10:51:40;4.90;;;1.50;;
17864;SDS011;9058;52.018;4.202;2022-08-21T10:54:12;3.58;;;1.48;;
17864;SDS011;9058;52.018;4.202;2022-08-21T10:56:42;4.45;;;1.60;;
17864;SDS011;9058;52.018;4.202;2022-08-21T10:59:16;5.40;;;1.95;;
17864;SDS011;9058;52.018;4.202;2022-08-21T11:01:46;2.67;;;1.23;;
17864;SDS011;9058;52.018;4.202;2022-08-21T11:04:16;5.57;;;1.48;;
17864;SDS011;9058;52.018;4.202;2022-08-21T11:06:46;7.90;;;1.85;;
17864;SDS011;9058;52.018;4.202;2022-08-21T11:09:15;4.45;;;1.58;;
17864;SDS011;9058;52.018;4.202;2022-08-21T11:11:44;4.72;;;1.55;;
17864;SDS011;9058;52.018;4.202;2022-08-21T11:14:13;6.10;;;1.30;;
17864;SDS011;9058;52.018;4.202;2022-08-21T11:16:43;11.48;;;1.63;;
17864;SDS011;9058;52.018;4.202;2022-08-21T11:19:13;4.72;;;1.20;;
17864;SDS011;9058;52.018;4.202;2022-08-21T11:21:42;6.93;;;1.50;;
17864;SDS011;9058;52.018;4.202;2022-08-21T11:24:17;5.05;;;1.30;;
17864;SDS011;9058;52.018;4.202;2022-08-21T11:26:49;6.15;;;1.50;;
17864;SDS011;9058;52.018;4.202;2022-08-21T11:29:18;4.55;;;1.40;;
17864;SDS011;9058;52.018;4.202;2022-08-21T11:31:51;4.00;;;1.05;;
17864;SDS011;9058;52.018;4.202;2022-08-21T11:34:23;5.82;;;1.50;;
17864;SDS011;9058;52.018;4.202;2022-08-21T11:36:55;5.40;;;1.15;;
17864;SDS011;9058;52.018;4.202;2022-08-21T11:39:26;5.75;;;1.10;;
17864;SDS011;9058;52.018;4.202;2022-08-21T11:41:59;5.93;;;1.50;;
17864;SDS011;9058;52.018;4.202;2022-08-21T11:44:31;5.72;;;1.90;;
17864;SDS011;9058;52.018;4.202;2022-08-21T11:47:05;6.53;;;1.27;;
17864;SDS011;9058;52.018;4.202;2022-08-21T11:49:36;3.85;;;1.10;;
17864;SDS011;9058;52.018;4.202;2022-08-21T11:52:07;4.30;;;1.75;;
17864;SDS011;9058;52.018;4.202;2022-08-21T11:54:37;3.85;;;1.38;;
17864;SDS011;9058;52.018;4.202;2022-08-21T11:57:05;4.40;;;1.50;;
17864;SDS011;9058;52.018;4.202;2022-08-21T11:59:35;6.25;;;2.05;;
17864;SDS011;9058;52.018;4.202;2022-08-21T12:02:03;5.30;;;1.10;;
17864;SDS011;9058;52.018;4.202;2022-08-21T12:04:34;4.75;;;1.10;;
17864;SDS011;9058;52.018;4.202;2022-08-21T12:07:10;4.55;;;1.20;;
17864;SDS011;9058;52.018;4.202;2022-08-21T12:09:39;5.65;;;1.27;;
17864;SDS011;9058;52.018;4.202;2022-08-21T12:12:11;3.92;;;1.42;;
17864;SDS011;9058;52.018;4.202;2022-08-21T12:14:39;6.95;;;1.45;;
17864;SDS011;9058;52.018;4.202;2022-08-21T12:17:07;5.18;;;1.20;;
17864;SDS011;9058;52.018;4.202;2022-08-21T12:19:34;5.30;;;1.40;;
17864;SDS011;9058;52.018;4.202;2022-08-21T12:22:07;3.90;;;1.20;;
17864;SDS011;9058;52.018;4.202;2022-08-21T12:24:36;7.00;;;1.40;;
17864;SDS011;9058;52.018;4.202;2022-08-21T12:27:14;4.72;;;1.27;;
17864;SDS011;9058;52.018;4.202;2022-08-21T12:29:45;5.00;;;1.50;;
17864;SDS011;9058;52.018;4.202;2022-08-21T12:32:22;3.70;;;1.58;;
17864;SDS011;9058;52.018;4.202;2022-08-21T12:34:50;6.13;;;1.80;;
17864;SDS011;9058;52.018;4.202;2022-08-21T12:37:20;6.18;;;1.40;;
17864;SDS011;9058;52.018;4.202;2022-08-21T12:39:48;7.03;;;1.63;;
17864;SDS011;9058;52.018;4.202;2022-08-21T12:42:17;3.28;;;1.20;;
17864;SDS011;9058;52.018;4.202;2022-08-21T12:44:46;4.70;;;1.25;;
17864;SDS011;9058;52.018;4.202;2022-08-21T12:47:16;6.10;;;1.52;;
17864;SDS011;9058;52.018;4.202;2022-08-21T12:49:45;6.93;;;1.58;;
17864;SDS011;9058;52.018;4.202;2022-08-21T12:52:19;6.07;;;1.52;;
17864;SDS011;9058;52.018;4.202;2022-08-21T12:54:46;7.50;;;1.98;;
17864;SDS011;9058;52.018;4.202;2022-08-21T12:57:20;3.38;;;1.40;;
17864;SDS011;9058;52.018;4.202;2022-08-21T12:59:51;5.47;;;1.67;;
17864;SDS011;9058;52.018;4.202;2022-08-21T13:02:18;7.78;;;1.48;;
17864;SDS011;9058;52.018;4.202;2022-08-21T13:04:46;4.93;;;1.38;;
17864;SDS011;9058;52.018;4.202;2022-08-21T13:07:14;5.38;;;1.73;;
17864;SDS011;9058;52.018;4.202;2022-08-21T13:09:43;7.10;;;1.77;;
17864;SDS011;9058;52.018;4.202;2022-08-21T13:12:12;5.18;;;1.70;;
17864;SDS011;9058;52.018;4.202;2022-08-21T13:14:41;8.90;;;1.75;;
17864;SDS011;9058;52.018;4.202;2022-08-21T13:17:09;6.68;;;1.63;;
17864;SDS011;9058;52.018;4.202;2022-08-21T13:19:36;8.63;;;1.67;;
17864;SDS011;9058;52.018;4.202;2022-08-21T13:22:03;6.72;;;1.90;;
17864;SDS011;9058;52.018;4.202;2022-08-21T13:24:30;7.07;;;1.60;;
17864;SDS011;9058;52.018;4.202;2022-08-21T13:26:58;6.88;;;1.88;;
17864;SDS011;9058;52.018;4.202;2022-08-21T13:29:27;6.65;;;2.13;;
17864;SDS011;9058;52.018;4.202;2022-08-21T13:31:56;7.97;;;2.00;;
17864;SDS011;9058;52.018;4.202;2022-08-21T13:34:23;8.65;;;2.00;;
17864;SDS011;9058;52.018;4.202;2022-08-21T13:36:51;9.18;;;2.03;;
17864;SDS011;9058;52.018;4.202;2022-08-21T13:39:19;8.52;;;1.80;;
17864;SDS011;9058;52.018;4.202;2022-08-21T13:41:47;9.43;;;2.20;;
17864;SDS011;9058;52.018;4.202;2022-08-21T13:44:15;10.07;;;2.25;;
17864;SDS011;9058;52.018;4.202;2022-08-21T13:46:41;8.02;;;1.83;;
17864;SDS011;9058;52.018;4.202;2022-08-21T13:49:10;4.85;;;1.70;;
17864;SDS011;9058;52.018;4.202;2022-08-21T13:51:39;8.32;;;2.10;;
17864;SDS011;9058;52.018;4.202;2022-08-21T13:54:13;7.00;;;2.88;;
17864;SDS011;9058;52.018;4.202;2022-08-21T13:56:41;9.20;;;2.20;;
17864;SDS011;9058;52.018;4.202;2022-08-21T13:59:08;5.22;;;1.75;;
17864;SDS011;9058;52.018;4.202;2022-08-21T14:01:36;6.80;;;2.13;;
17864;SDS011;9058;52.018;4.202;2022-08-21T14:04:05;7.28;;;1.80;;
17864;SDS011;9058;52.018;4.202;2022-08-21T14:06:36;7.82;;;2.22;;
17864;SDS011;9058;52.018;4.202;2022-08-21T14:09:07;7.30;;;2.67;;
17864;SDS011;9058;52.018;4.202;2022-08-21T14:11:34;3.33;;;1.65;;
17864;SDS011;9058;52.018;4.202;2022-08-21T14:14:03;7.38;;;2.22;;
17864;SDS011;9058;52.018;4.202;2022-08-21T14:16:41;11.45;;;2.58;;
17864;SDS011;9058;52.018;4.202;2022-08-21T14:19:08;6.47;;;1.90;;
17864;SDS011;9058;52.018;4.202;2022-08-21T14:21:37;7.07;;;2.00;;
17864;SDS011;9058;52.018;4.202;2022-08-21T14:24:05;6.22;;;1.85;;
17864;SDS011;9058;52.018;4.202;2022-08-21T14:26:34;7.35;;;2.05;;
17864;SDS011;9058;52.018;4.202;2022-08-21T14:29:01;5.90;;;1.98;;
17864;SDS011;9058;52.018;4.202;2022-08-21T14:31:28;6.20;;;2.25;;
17864;SDS011;9058;52.018;4.202;2022-08-21T14:33:57;5.63;;;2.00;;
17864;SDS011;9058;52.018;4.202;2022-08-21T14:36:24;5.95;;;1.70;;
17864;SDS011;9058;52.018;4.202;2022-08-21T14:38:52;7.60;;;2.38;;
17864;SDS011;9058;52.018;4.202;2022-08-21T14:41:19;7.75;;;2.00;;
17864;SDS011;9058;52.018;4.202;2022-08-21T14:46:51;9.90;;;2.05;;
17864;SDS011;9058;52.018;4.202;2022-08-21T14:49:17;7.80;;;2.45;;
17864;SDS011;9058;52.018;4.202;2022-08-21T14:51:44;6.25;;;2.33;;
17864;SDS011;9058;52.018;4.202;2022-08-21T14:54:11;10.20;;;2.60;;
17864;SDS011;9058;52.018;4.202;2022-08-21T14:56:38;8.13;;;2.20;;
17864;SDS011;9058;52.018;4.202;2022-08-21T14:59:06;8.65;;;1.73;;
17864;SDS011;9058;52.018;4.202;2022-08-21T15:01:33;6.05;;;2.28;;
17864;SDS011;9058;52.018;4.202;2022-08-21T15:04:00;5.35;;;2.00;;